sensor_id;sensor_type;location;lat;lon;timestamp;pressure;altitude;pressure_sealevel;temperature;humidity
60319;BME280;46163;52.306;5.634;2024-03-23T00:55:42;100912.72;;;5.56;100.00
60319;BME280;46163;52.306;5.634;2024-03-23T00:58:08;100920.81;;;5.62;100.00
60319;BME280;46163;52.306;5.634;2024-03-23T01:00:34;100902.03;;;5.41;100.00
60319;BME280;46163;52.306;5.634;2024-03-23T01:02:59;100842.00;;;5.02;100.00
60319;BME280;46163;52.306;5.634;2024-03-23T01:05:25;100873.66;;;5.19;100.00
60319;BME280;46163;52.306;5.634;2024-03-23T01:07:51;100874.66;;;5.18;100.00
60319;BME280;46163;52.306;5.634;2024-03-23T01:10:16;100877.78;;;5.13;100.00
60319;BME280;46163;52.306;5.634;2024-03-23T01:12:42;100889.00;;;5.15;100.00
60319;BME280;46163;52.306;5.634;2024-03-23T01:15:07;100860.78;;;4.91;100.00
60319;BME280;46163;52.306;5.634;2024-03-23T01:17:33;100899.03;;;5.03;100.00
60319;BME280;46163;52.306;5.634;2024-03-23T01:19:58;100896.09;;;5.06;100.00
60319;BME280;46163;52.306;5.634;2024-03-23T01:22:24;100884.03;;;4.96;100.00
60319;BME280;46163;52.306;5.634;2024-03-23T01:24:50;100871.47;;;4.73;100.00
60319;BME280;46163;52.306;5.634;2024-03-23T01:27:16;100866.19;;;4.73;100.00
60319;BME280;46163;52.306;5.634;2024-03-23T01:29:41;100862.41;;;4.76;100.00
60319;BME280;46163;52.306;5.634;2024-03-23T01:32:07;100825.09;;;4.46;100.00
60319;BME280;46163;52.306;5.634;2024-03-23T01:34:33;100864.34;;;4.58;100.00
60319;BME280;46163;52.306;5.634;2024-03-23T01:36:58;100839.91;;;4.39;100.00
60319;BME280;46163;52.306;5.634;2024-03-23T01:39:24;100839.91;;;4.39;100.00
60319;BME280;46163;52.306;5.634;2024-03-23T01:41:49;100865.13;;;4.50;100.00
60319;BME280;46163;52.306;5.634;2024-03-23T01:44:31;100828.16;;;4.25;100.00
60319;BME280;46163;52.306;5.634;2024-03-23T01:46:58;100842.16;;;4.18;100.00
60319;BME280;46163;52.306;5.634;2024-03-23T01:49:24;100861.81;;;4.40;100.00
60319;BME280;46163;52.306;5.634;2024-03-23T01:51:50;100849.75;;;4.29;100.00
60319;BME280;46163;52.306;5.634;2024-03-23T01:54:15;100834.25;;;4.18;100.00
60319;BME280;46163;52.306;5.634;2024-03-23T01:56:41;100848.13;;;4.28;100.00
60319;BME280;46163;52.306;5.634;2024-03-23T01:59:07;100834.09;;;4.19;100.00
60319;BME280;46163;52.306;5.634;2024-03-23T02:01:35;100847.78;;;4.31;100.00
60319;BME280;46163;52.306;5.634;2024-03-23T02:04:03;100839.22;;;4.29;100.00
60319;BME280;46163;52.306;5.634;2024-03-23T02:06:29;100837.84;;;4.17;100.00
60319;BME280;46163;52.306;5.634;2024-03-23T02:08:55;100839.16;;;4.13;100.00
60319;BME280;46163;52.306;5.634;2024-03-23T02:11:20;100831.72;;;4.08;100.00
60319;BME280;46163;52.306;5.634;2024-03-23T02:13:46;100821.00;;;4.02;100.00
60319;BME280;46163;52.306;5.634;2024-03-23T02:16:11;100830.84;;;4.00;100.00
60319;BME280;46163;52.306;5.634;2024-03-23T02:18:38;100822.34;;;4.06;100.00
60319;BME280;46163;52.306;5.634;2024-03-23T02:21:03;100815.41;;;4.05;100.00
60319;BME280;46163;52.306;5.634;2024-03-23T02:23:29;100785.53;;;3.80;100.00
60319;BME280;46163;52.306;5.634;2024-03-23T02:25:55;100815.34;;;3.88;100.00
60319;BME280;46163;52.306;5.634;2024-03-23T02:28:20;100822.25;;;3.89;100.00
60319;BME280;46163;52.306;5.634;2024-03-23T02:30:48;100746.16;;;3.36;100.00
60319;BME280;46163;52.306;5.634;2024-03-23T02:33:13;100809.34;;;3.70;100.00
60319;BME280;46163;52.306;5.634;2024-03-23T02:35:39;100813.81;;;3.78;100.00
60319;BME280;46163;52.306;5.634;2024-03-23T02:38:04;100821.88;;;3.76;100.00
60319;BME280;46163;52.306;5.634;2024-03-23T02:40:29;100786.75;;;3.59;100.00
60319;BME280;46163;52.306;5.634;2024-03-23T02:42:55;100774.97;;;3.46;100.00
60319;BME280;46163;52.306;5.634;2024-03-23T02:45:20;100771.53;;;3.45;100.00
60319;BME280;46163;52.306;5.634;2024-03-23T02:47:46;100789.16;;;3.53;100.00
60319;BME280;46163;52.306;5.634;2024-03-23T02:50:11;100787.91;;;3.57;100.00
60319;BME280;46163;52.306;5.634;2024-03-23T02:52:37;100802.38;;;3.61;100.00
60319;BME280;46163;52.306;5.634;2024-03-23T02:55:03;100775.50;;;3.49;100.00
60319;BME280;46163;52.306;5.634;2024-03-23T02:57:28;100810.31;;;3.69;100.00
60319;BME280;46163;52.306;5.634;2024-03-23T02:59:54;100804.63;;;3.56;100.00
60319;BME280;46163;52.306;5.634;2024-03-23T03:02:20;100767.00;;;3.29;100.00
60319;BME280;46163;52.306;5.634;2024-03-23T03:04:45;100812.84;;;3.53;100.00
60319;BME280;46163;52.306;5.634;2024-03-23T03:07:11;100795.31;;;3.35;100.00
60319;BME280;46163;52.306;5.634;2024-03-23T03:09:36;100805.84;;;3.35;100.00
60319;BME280;46163;52.306;5.634;2024-03-23T03:12:04;100794.22;;;3.20;100.00
60319;BME280;46163;52.306;5.634;2024-03-23T03:14:30;100802.53;;;3.33;100.00
60319;BME280;46163;52.306;5.634;2024-03-23T03:16:56;100803.00;;;3.29;100.00
60319;BME280;46163;52.306;5.634;2024-03-23T03:19:21;100792.28;;;3.22;100.00
60319;BME280;46163;52.306;5.634;2024-03-23T03:21:46;100803.38;;;3.34;100.00
60319;BME280;46163;52.306;5.634;2024-03-23T03:24:13;100759.56;;;2.99;100.00
60319;BME280;46163;52.306;5.634;2024-03-23T03:26:39;100793.94;;;3.23;100.00
60319;BME280;46163;52.306;5.634;2024-03-23T03:29:04;100802.94;;;3.21;100.00
60319;BME280;46163;52.306;5.634;2024-03-23T03:31:30;100798.91;;;3.08;100.00
60319;BME280;46163;52.306;5.634;2024-03-23T03:33:56;100806.41;;;3.03;100.00
60319;BME280;46163;52.306;5.634;2024-03-23T03:36:22;100806.19;;;3.15;100.00
60319;BME280;46163;52.306;5.634;2024-03-23T03:38:47;100776.97;;;3.00;100.00
60319;BME280;46163;52.306;5.634;2024-03-23T03:41:13;100797.78;;;3.11;100.00
60319;BME280;46163;52.306;5.634;2024-03-23T03:43:39;100782.31;;;3.08;100.00
60319;BME280;46163;52.306;5.634;2024-03-23T03:46:04;100781.81;;;3.04;100.00
60319;BME280;46163;52.306;5.634;2024-03-23T03:48:32;100780.00;;;3.05;100.00
60319;BME280;46163;52.306;5.634;2024-03-23T03:50:58;100784.94;;;3.08;100.00
60319;BME280;46163;52.306;5.634;2024-03-23T03:53:23;100734.72;;;2.75;100.00
60319;BME280;46163;52.306;5.634;2024-03-23T03:55:49;100790.34;;;3.06;100.00
60319;BME280;46163;52.306;5.634;2024-03-23T03:58:14;100771.22;;;2.96;100.00
60319;BME280;46163;52.306;5.634;2024-03-23T04:00:40;100779.78;;;2.98;100.00
60319;BME280;46163;52.306;5.634;2024-03-23T04:03:06;100787.66;;;2.98;100.00
60319;BME280;46163;52.306;5.634;2024-03-23T04:05:31;100774.59;;;2.89;100.00
60319;BME280;46163;52.306;5.634;2024-03-23T04:07:56;100769.63;;;2.86;100.00
60319;BME280;46163;52.306;5.634;2024-03-23T04:10:22;100785.63;;;2.92;100.00
60319;BME280;46163;52.306;5.634;2024-03-23T04:12:47;100740.84;;;2.58;100.00
60319;BME280;46163;52.306;5.634;2024-03-23T04:15:13;100753.53;;;2.63;100.00
60319;BME280;46163;52.306;5.634;2024-03-23T04:17:38;100743.09;;;2.53;100.00
60319;BME280;46163;52.306;5.634;2024-03-23T04:20:04;100761.03;;;2.58;100.00
60319;BME280;46163;52.306;5.634;2024-03-23T04:22:34;100767.72;;;2.70;100.00
60319;BME280;46163;52.306;5.634;2024-03-23T04:24:59;100750.22;;;2.61;100.00
60319;BME280;46163;52.306;5.634;2024-03-23T04:27:25;100759.28;;;2.66;100.00
60319;BME280;46163;52.306;5.634;2024-03-23T04:29:51;100756.75;;;2.57;100.00
60319;BME280;46163;52.306;5.634;2024-03-23T04:32:17;100760.19;;;2.57;100.00
60319;BME280;46163;52.306;5.634;2024-03-23T04:34:43;100730.09;;;2.34;100.00
60319;BME280;46163;52.306;5.634;2024-03-23T04:37:09;100771.75;;;2.64;100.00
60319;BME280;46163;52.306;5.634;2024-03-23T04:39:35;100705.88;;;2.22;100.00
60319;BME280;46163;52.306;5.634;2024-03-23T04:42:02;100743.03;;;2.45;100.00
60319;BME280;46163;52.306;5.634;2024-03-23T04:44:28;100761.84;;;2.58;100.00
60319;BME280;46163;52.306;5.634;2024-03-23T04:46:54;100757.72;;;2.55;100.00
60319;BME280;46163;52.306;5.634;2024-03-23T04:49:19;100761.00;;;2.75;100.00
60319;BME280;46163;52.306;5.634;2024-03-23T04:51:45;100745.41;;;2.74;100.00
60319;BME280;46163;52.306;5.634;2024-03-23T04:54:14;100747.28;;;2.81;100.00
60319;BME280;46163;52.306;5.634;2024-03-23T04:56:40;100756.72;;;2.92;100.00
60319;BME280;46163;52.306;5.634;2024-03-23T04:59:06;100751.19;;;3.03;100.00
60319;BME280;46163;52.306;5.634;2024-03-23T05:01:32;100743.25;;;2.95;100.00
60319;BME280;46163;52.306;5.634;2024-03-23T05:03:57;100741.00;;;3.00;100.00
60319;BME280;46163;52.306;5.634;2024-03-23T05:06:24;100731.81;;;2.78;100.00
60319;BME280;46163;52.306;5.634;2024-03-23T05:08:50;100733.75;;;2.76;100.00
60319;BME280;46163;52.306;5.634;2024-03-23T05:11:16;100742.94;;;2.72;100.00
60319;BME280;46163;52.306;5.634;2024-03-23T05:13:42;100758.69;;;2.72;100.00
60319;BME280;46163;52.306;5.634;2024-03-23T05:16:07;100735.22;;;2.35;100.00
60319;BME280;46163;52.306;5.634;2024-03-23T05:18:34;100755.78;;;2.58;100.00
60319;BME280;46163;52.306;5.634;2024-03-23T05:20:59;100727.84;;;2.57;100.00
60319;BME280;46163;52.306;5.634;2024-03-23T05:23:25;100730.41;;;2.48;100.00
60319;BME280;46163;52.306;5.634;2024-03-23T05:25:51;100745.41;;;2.56;100.00
60319;BME280;46163;52.306;5.634;2024-03-23T05:28:18;100748.13;;;2.46;100.00
60319;BME280;46163;52.306;5.634;2024-03-23T05:30:43;100739.19;;;2.21;100.00
60319;BME280;46163;52.306;5.634;2024-03-23T05:33:08;100732.81;;;1.79;100.00
60319;BME280;46163;52.306;5.634;2024-03-23T05:35:34;100740.59;;;1.33;100.00
60319;BME280;46163;52.306;5.634;2024-03-23T05:38:00;100750.50;;;0.64;100.00
60319;BME280;46163;52.306;5.634;2024-03-23T05:40:26;100734.41;;;-0.20;100.00
60319;BME280;46163;52.306;5.634;2024-03-23T05:42:51;100752.44;;;-0.58;100.00
60319;BME280;46163;52.306;5.634;2024-03-23T05:45:21;100754.75;;;-0.64;100.00
60319;BME280;46163;52.306;5.634;2024-03-23T05:47:48;100734.34;;;0.78;100.00
60319;BME280;46163;52.306;5.634;2024-03-23T05:50:14;100708.50;;;1.22;100.00
60319;BME280;46163;52.306;5.634;2024-03-23T05:52:40;100715.16;;;1.71;100.00
60319;BME280;46163;52.306;5.634;2024-03-23T05:55:06;100750.66;;;2.20;100.00
60319;BME280;46163;52.306;5.634;2024-03-23T05:57:31;100732.88;;;2.50;100.00
60319;BME280;46163;52.306;5.634;2024-03-23T05:59:57;100730.31;;;2.58;100.00
60319;BME280;46163;52.306;5.634;2024-03-23T06:02:23;100746.88;;;2.94;100.00
60319;BME280;46163;52.306;5.634;2024-03-23T06:04:49;100747.25;;;2.99;100.00
60319;BME280;46163;52.306;5.634;2024-03-23T06:07:15;100758.84;;;2.89;100.00
60319;BME280;46163;52.306;5.634;2024-03-23T06:09:41;100762.81;;;2.75;100.00
60319;BME280;46163;52.306;5.634;2024-03-23T06:12:07;100743.53;;;1.11;100.00
60319;BME280;46163;52.306;5.634;2024-03-23T06:14:32;100771.31;;;-0.23;98.16
60319;BME280;46163;52.306;5.634;2024-03-23T06:16:59;100758.03;;;-1.66;100.00
60319;BME280;46163;52.306;5.634;2024-03-23T06:19:25;100741.91;;;0.04;100.00
60319;BME280;46163;52.306;5.634;2024-03-23T06:21:52;100759.88;;;1.79;100.00
60319;BME280;46163;52.306;5.634;2024-03-23T06:24:17;100744.28;;;2.41;100.00
60319;BME280;46163;52.306;5.634;2024-03-23T06:26:43;100719.97;;;2.39;100.00
60319;BME280;46163;52.306;5.634;2024-03-23T06:29:09;100754.72;;;2.68;100.00
60319;BME280;46163;52.306;5.634;2024-03-23T06:34:56;100749.38;;;2.42;100.00
60319;BME280;46163;52.306;5.634;2024-03-23T06:37:21;100747.28;;;2.81;100.00
60319;BME280;46163;52.306;5.634;2024-03-23T06:39:47;100700.06;;;2.72;100.00
60319;BME280;46163;52.306;5.634;2024-03-23T06:42:13;100739.97;;;3.19;100.00
60319;BME280;46163;52.306;5.634;2024-03-23T06:44:38;100746.69;;;3.14;100.00
60319;BME280;46163;52.306;5.634;2024-03-23T06:47:05;100748.78;;;2.31;100.00
60319;BME280;46163;52.306;5.634;2024-03-23T06:49:31;100736.69;;;1.00;99.86
60319;BME280;46163;52.306;5.634;2024-03-23T06:51:56;100698.69;;;0.57;100.00
60319;BME280;46163;52.306;5.634;2024-03-23T06:54:22;100746.88;;;-0.43;98.33
60319;BME280;46163;52.306;5.634;2024-03-23T06:56:47;100747.22;;;-1.30;100.00
60319;BME280;46163;52.306;5.634;2024-03-23T06:59:13;100720.19;;;0.32;100.00
60319;BME280;46163;52.306;5.634;2024-03-23T07:01:38;100735.72;;;1.76;100.00
60319;BME280;46163;52.306;5.634;2024-03-23T07:04:04;100754.78;;;2.76;100.00
60319;BME280;46163;52.306;5.634;2024-03-23T07:06:30;100752.19;;;3.28;100.00
60319;BME280;46163;52.306;5.634;2024-03-23T07:08:56;100727.31;;;3.49;100.00
60319;BME280;46163;52.306;5.634;2024-03-23T07:11:22;100742.56;;;3.79;100.00
60319;BME280;46163;52.306;5.634;2024-03-23T07:13:51;100741.31;;;4.00;100.00
60319;BME280;46163;52.306;5.634;2024-03-23T07:16:17;100723.38;;;3.95;100.00
60319;BME280;46163;52.306;5.634;2024-03-23T07:18:45;100733.16;;;4.19;100.00
60319;BME280;46163;52.306;5.634;2024-03-23T07:21:11;100712.78;;;4.37;100.00
60319;BME280;46163;52.306;5.634;2024-03-23T07:23:36;100723.47;;;4.60;100.00
60319;BME280;46163;52.306;5.634;2024-03-23T07:26:04;100713.28;;;4.73;100.00
60319;BME280;46163;52.306;5.634;2024-03-23T07:28:30;100728.25;;;4.97;100.00
60319;BME280;46163;52.306;5.634;2024-03-23T07:31:10;100719.00;;;5.01;100.00
60319;BME280;46163;52.306;5.634;2024-03-23T07:33:38;100711.94;;;4.77;100.00
60319;BME280;46163;52.306;5.634;2024-03-23T07:36:06;100711.47;;;4.58;100.00
60319;BME280;46163;52.306;5.634;2024-03-23T07:38:32;100722.00;;;4.98;100.00
60319;BME280;46163;52.306;5.634;2024-03-23T07:41:07;100729.16;;;5.29;89.60
60319;BME280;46163;52.306;5.634;2024-03-23T07:43:33;100715.47;;;5.42;86.34
60319;BME280;46163;52.306;5.634;2024-03-23T07:45:59;100689.91;;;5.73;96.31
60319;BME280;46163;52.306;5.634;2024-03-23T07:48:25;100722.13;;;6.08;79.99
60319;BME280;46163;52.306;5.634;2024-03-23T07:51:06;100716.84;;;6.08;85.88
60319;BME280;46163;52.306;5.634;2024-03-23T07:53:33;100719.72;;;5.90;83.04
60319;BME280;46163;52.306;5.634;2024-03-23T07:56:02;100735.19;;;4.66;82.42
60319;BME280;46163;52.306;5.634;2024-03-23T07:58:28;100715.31;;;3.96;86.40
60319;BME280;46163;52.306;5.634;2024-03-23T08:00:54;100732.00;;;3.71;100.00
60319;BME280;46163;52.306;5.634;2024-03-23T08:03:20;100713.00;;;3.17;100.00
60319;BME280;46163;52.306;5.634;2024-03-23T08:05:46;100705.19;;;4.50;100.00
60319;BME280;46163;52.306;5.634;2024-03-23T08:08:11;100727.53;;;5.28;100.00
60319;BME280;46163;52.306;5.634;2024-03-23T08:10:46;100714.97;;;6.16;100.00
60319;BME280;46163;52.306;5.634;2024-03-23T08:13:12;100713.09;;;7.68;98.52
60319;BME280;46163;52.306;5.634;2024-03-23T08:15:37;100701.66;;;8.18;91.25
60319;BME280;46163;52.306;5.634;2024-03-23T08:18:04;100716.38;;;9.95;80.21
60319;BME280;46163;52.306;5.634;2024-03-23T08:20:30;100684.00;;;11.70;76.13
60319;BME280;46163;52.306;5.634;2024-03-23T08:22:55;100701.09;;;13.39;64.31
60319;BME280;46163;52.306;5.634;2024-03-23T08:25:21;100678.81;;;14.77;62.60
60319;BME280;46163;52.306;5.634;2024-03-23T08:27:46;100703.97;;;14.76;56.31
60319;BME280;46163;52.306;5.634;2024-03-23T08:30:12;100706.66;;;14.52;55.40
60319;BME280;46163;52.306;5.634;2024-03-23T08:32:37;100695.13;;;13.37;58.35
60319;BME280;46163;52.306;5.634;2024-03-23T08:35:04;100690.63;;;14.04;54.12
60319;BME280;46163;52.306;5.634;2024-03-23T08:37:29;100697.13;;;14.80;54.35
60319;BME280;46163;52.306;5.634;2024-03-23T08:39:55;100698.63;;;14.76;54.41
60319;BME280;46163;52.306;5.634;2024-03-23T08:42:21;100704.50;;;14.42;56.50
60319;BME280;46163;52.306;5.634;2024-03-23T08:44:47;100702.69;;;12.15;63.08
60319;BME280;46163;52.306;5.634;2024-03-23T08:47:15;100704.81;;;13.56;59.85
60319;BME280;46163;52.306;5.634;2024-03-23T08:49:40;100671.56;;;12.02;60.15
60319;BME280;46163;52.306;5.634;2024-03-23T08:52:06;100703.25;;;11.72;66.00
60319;BME280;46163;52.306;5.634;2024-03-23T08:54:32;100669.47;;;10.88;67.25
60319;BME280;46163;52.306;5.634;2024-03-23T08:56:59;100719.50;;;9.23;72.65
60319;BME280;46163;52.306;5.634;2024-03-23T08:59:24;100713.97;;;8.68;77.09
60319;BME280;46163;52.306;5.634;2024-03-23T09:01:50;100711.34;;;9.24;74.07
60319;BME280;46163;52.306;5.634;2024-03-23T09:04:15;100692.53;;;12.62;65.45
60319;BME280;46163;52.306;5.634;2024-03-23T09:06:43;100702.25;;;10.95;63.05
60319;BME280;46163;52.306;5.634;2024-03-23T09:09:09;100657.50;;;9.91;66.71
60319;BME280;46163;52.306;5.634;2024-03-23T09:11:34;100701.09;;;9.56;70.59
60319;BME280;46163;52.306;5.634;2024-03-23T09:14:00;100702.47;;;9.45;71.82
60319;BME280;46163;52.306;5.634;2024-03-23T09:16:25;100657.94;;;13.53;60.13
60319;BME280;46163;52.306;5.634;2024-03-23T09:18:52;100692.13;;;13.08;58.50
60319;BME280;46163;52.306;5.634;2024-03-23T09:21:18;100683.00;;;15.19;54.30
60319;BME280;46163;52.306;5.634;2024-03-23T09:23:44;100678.03;;;14.99;48.75
60319;BME280;46163;52.306;5.634;2024-03-23T09:26:09;100685.81;;;15.24;49.34
60319;BME280;46163;52.306;5.634;2024-03-23T09:28:34;100672.75;;;15.92;48.73
60319;BME280;46163;52.306;5.634;2024-03-23T09:31:08;100644.44;;;17.18;47.75
60319;BME280;46163;52.306;5.634;2024-03-23T09:33:35;100677.16;;;13.62;50.36
60319;BME280;46163;52.306;5.634;2024-03-23T09:36:04;100683.25;;;15.18;51.51
60319;BME280;46163;52.306;5.634;2024-03-23T09:38:30;100681.88;;;13.48;52.21
60319;BME280;46163;52.306;5.634;2024-03-23T09:40:56;100656.34;;;16.05;50.15
60319;BME280;46163;52.306;5.634;2024-03-23T09:43:22;100658.19;;;17.83;43.02
60319;BME280;46163;52.306;5.634;2024-03-23T09:45:48;100692.13;;;14.41;52.51
60319;BME280;46163;52.306;5.634;2024-03-23T09:48:14;100674.75;;;12.74;60.11
60319;BME280;46163;52.306;5.634;2024-03-23T09:50:40;100698.84;;;11.46;65.27
60319;BME280;46163;52.306;5.634;2024-03-23T09:53:11;100693.13;;;12.32;58.78
60319;BME280;46163;52.306;5.634;2024-03-23T09:55:37;100693.25;;;11.61;63.36
60319;BME280;46163;52.306;5.634;2024-03-23T09:58:04;100692.81;;;10.99;61.00
60319;BME280;46163;52.306;5.634;2024-03-23T10:00:34;100669.50;;;9.74;67.87
60319;BME280;46163;52.306;5.634;2024-03-23T10:03:00;100672.75;;;9.70;70.06
60319;BME280;46163;52.306;5.634;2024-03-23T10:05:30;100684.31;;;9.49;70.03
60319;BME280;46163;52.306;5.634;2024-03-23T10:10:38;100690.22;;;12.65;64.73
60319;BME280;46163;52.306;5.634;2024-03-23T10:13:04;100665.59;;;13.32;57.52
60319;BME280;46163;52.306;5.634;2024-03-23T10:15:29;100680.03;;;12.81;59.90
60319;BME280;46163;52.306;5.634;2024-03-23T10:17:55;100686.59;;;11.25;64.88
60319;BME280;46163;52.306;5.634;2024-03-23T10:20:22;100695.38;;;10.13;69.58
60319;BME280;46163;52.306;5.634;2024-03-23T10:22:48;100705.16;;;9.52;76.47
60319;BME280;46163;52.306;5.634;2024-03-23T10:25:14;100690.00;;;8.83;80.41
60319;BME280;46163;52.306;5.634;2024-03-23T10:27:40;100710.41;;;10.47;76.52
60319;BME280;46163;52.306;5.634;2024-03-23T10:30:13;100654.34;;;11.98;71.65
60319;BME280;46163;52.306;5.634;2024-03-23T10:32:41;100687.06;;;12.75;67.08
60319;BME280;46163;52.306;5.634;2024-03-23T10:35:17;100672.53;;;11.05;70.41
60319;BME280;46163;52.306;5.634;2024-03-23T10:37:49;100654.94;;;10.38;72.23
60319;BME280;46163;52.306;5.634;2024-03-23T10:40:17;100687.97;;;9.96;78.33
60319;BME280;46163;52.306;5.634;2024-03-23T10:42:43;100668.31;;;9.83;79.22
60319;BME280;46163;52.306;5.634;2024-03-23T10:45:09;100675.59;;;11.02;73.29
60319;BME280;46163;52.306;5.634;2024-03-23T10:47:36;100665.59;;;12.88;68.24
60319;BME280;46163;52.306;5.634;2024-03-23T10:50:03;100630.84;;;12.20;64.83
60319;BME280;46163;52.306;5.634;2024-03-23T10:52:28;100655.81;;;11.49;69.05
60319;BME280;46163;52.306;5.634;2024-03-23T10:54:55;100666.09;;;11.39;68.67
60319;BME280;46163;52.306;5.634;2024-03-23T10:57:27;100676.81;;;10.99;70.11
60319;BME280;46163;52.306;5.634;2024-03-23T10:59:56;100642.06;;;10.55;67.76
60319;BME280;46163;52.306;5.634;2024-03-23T11:02:22;100667.44;;;10.44;65.86
60319;BME280;46163;52.306;5.634;2024-03-23T11:04:48;100646.03;;;9.91;66.15
60319;BME280;46163;52.306;5.634;2024-03-23T11:09:51;100657.84;;;9.27;70.35
60319;BME280;46163;52.306;5.634;2024-03-23T11:14:51;100673.06;;;8.84;70.83
60319;BME280;46163;52.306;5.634;2024-03-23T11:17:21;100676.88;;;8.75;72.11
60319;BME280;46163;52.306;5.634;2024-03-23T11:20:01;100679.41;;;8.83;72.44
60319;BME280;46163;52.306;5.634;2024-03-23T11:22:38;100675.44;;;9.00;73.62
60319;BME280;46163;52.306;5.634;2024-03-23T11:25:23;100665.28;;;9.11;74.53
60319;BME280;46163;52.306;5.634;2024-03-23T11:27:53;100664.31;;;9.18;75.76
60319;BME280;46163;52.306;5.634;2024-03-23T11:32:53;100666.25;;;9.31;70.84
60319;BME280;46163;52.306;5.634;2024-03-23T11:35:32;100670.66;;;9.17;68.92
60319;BME280;46163;52.306;5.634;2024-03-23T11:38:05;100684.34;;;8.86;67.76
60319;BME280;46163;52.306;5.634;2024-03-23T11:40:35;100645.25;;;8.73;70.49
60319;BME280;46163;52.306;5.634;2024-03-23T11:43:03;100650.94;;;8.98;73.18
60319;BME280;46163;52.306;5.634;2024-03-23T11:45:34;100673.69;;;9.14;70.60
60319;BME280;46163;52.306;5.634;2024-03-23T11:48:16;100671.88;;;9.15;70.07
60319;BME280;46163;52.306;5.634;2024-03-23T11:50:49;100637.81;;;8.90;68.43
60319;BME280;46163;52.306;5.634;2024-03-23T11:53:17;100646.50;;;9.05;65.39
60319;BME280;46163;52.306;5.634;2024-03-23T11:55:56;100653.94;;;8.89;65.59
60319;BME280;46163;52.306;5.634;2024-03-23T11:58:24;100660.28;;;8.66;68.93
60319;BME280;46163;52.306;5.634;2024-03-23T12:00:57;100637.47;;;8.72;69.32
60319;BME280;46163;52.306;5.634;2024-03-23T12:03:23;100644.91;;;8.83;65.98
60319;BME280;46163;52.306;5.634;2024-03-23T12:05:55;100658.13;;;9.11;67.94
60319;BME280;46163;52.306;5.634;2024-03-23T12:08:28;100653.75;;;9.25;67.99
60319;BME280;46163;52.306;5.634;2024-03-23T12:11:15;100634.44;;;8.75;66.14
60319;BME280;46163;52.306;5.634;2024-03-23T12:13:42;100650.63;;;8.59;66.27
60319;BME280;46163;52.306;5.634;2024-03-23T12:16:24;100662.66;;;8.55;72.81
60319;BME280;46163;52.306;5.634;2024-03-23T12:18:50;100663.72;;;8.60;71.39
60319;BME280;46163;52.306;5.634;2024-03-23T12:21:20;100660.88;;;8.62;71.42
60319;BME280;46163;52.306;5.634;2024-03-23T12:23:47;100646.72;;;8.33;73.53
60319;BME280;46163;52.306;5.634;2024-03-23T12:26:14;100644.19;;;8.25;74.23
60319;BME280;46163;52.306;5.634;2024-03-23T12:28:39;100651.56;;;8.44;74.83
60319;BME280;46163;52.306;5.634;2024-03-23T12:31:05;100625.03;;;8.44;74.20
60319;BME280;46163;52.306;5.634;2024-03-23T12:33:30;100594.38;;;8.35;69.66
60319;BME280;46163;52.306;5.634;2024-03-23T12:35:56;100614.28;;;8.53;71.01
60319;BME280;46163;52.306;5.634;2024-03-23T12:38:21;100619.66;;;8.94;69.34
60319;BME280;46163;52.306;5.634;2024-03-23T12:40:47;100627.72;;;9.07;67.18
60319;BME280;46163;52.306;5.634;2024-03-23T12:43:13;100604.72;;;8.86;66.74
60319;BME280;46163;52.306;5.634;2024-03-23T12:45:39;100616.53;;;9.18;67.94
60319;BME280;46163;52.306;5.634;2024-03-23T12:48:04;100631.50;;;9.32;63.30
60319;BME280;46163;52.306;5.634;2024-03-23T12:50:30;100607.66;;;9.39;64.54
60319;BME280;46163;52.306;5.634;2024-03-23T12:52:55;100615.06;;;9.63;63.59
60319;BME280;46163;52.306;5.634;2024-03-23T12:55:20;100594.53;;;9.31;62.06
60319;BME280;46163;52.306;5.634;2024-03-23T12:57:46;100621.25;;;9.23;63.69
60319;BME280;46163;52.306;5.634;2024-03-23T13:00:13;100627.44;;;8.95;68.08
60319;BME280;46163;52.306;5.634;2024-03-23T13:02:38;100655.13;;;8.58;73.71
60319;BME280;46163;52.306;5.634;2024-03-23T13:05:04;100660.38;;;8.09;75.88
60319;BME280;46163;52.306;5.634;2024-03-23T13:07:30;100670.16;;;8.08;80.78
60319;BME280;46163;52.306;5.634;2024-03-23T13:09:55;100692.63;;;7.76;79.96
60319;BME280;46163;52.306;5.634;2024-03-23T13:12:22;100680.31;;;7.54;85.70
60319;BME280;46163;52.306;5.634;2024-03-23T13:14:48;100659.59;;;7.43;85.81
60319;BME280;46163;52.306;5.634;2024-03-23T13:17:13;100666.63;;;7.21;88.35
60319;BME280;46163;52.306;5.634;2024-03-23T13:19:39;100671.75;;;7.22;87.49
60319;BME280;46163;52.306;5.634;2024-03-23T13:22:05;100642.44;;;7.39;87.52
60319;BME280;46163;52.306;5.634;2024-03-23T13:24:30;100630.56;;;7.34;83.80
60319;BME280;46163;52.306;5.634;2024-03-23T13:26:56;100662.16;;;7.51;84.00
60319;BME280;46163;52.306;5.634;2024-03-23T13:29:23;100649.09;;;7.34;86.48
60319;BME280;46163;52.306;5.634;2024-03-23T13:31:50;100645.44;;;7.50;85.81
60319;BME280;46163;52.306;5.634;2024-03-23T13:34:16;100631.88;;;7.75;82.55
60319;BME280;46163;52.306;5.634;2024-03-23T13:36:45;100616.75;;;7.54;81.68
60319;BME280;46163;52.306;5.634;2024-03-23T13:39:11;100616.81;;;7.60;84.29
60319;BME280;46163;52.306;5.634;2024-03-23T13:44:04;100612.25;;;7.69;80.53
60319;BME280;46163;52.306;5.634;2024-03-23T13:46:29;100628.81;;;7.56;76.59
60319;BME280;46163;52.306;5.634;2024-03-23T13:48:54;100616.84;;;7.46;81.56
60319;BME280;46163;52.306;5.634;2024-03-23T13:51:23;100627.16;;;7.55;81.31
60319;BME280;46163;52.306;5.634;2024-03-23T13:53:50;100627.00;;;7.57;79.15
60319;BME280;46163;52.306;5.634;2024-03-23T13:56:15;100636.50;;;7.73;78.98
60319;BME280;46163;52.306;5.634;2024-03-23T13:58:40;100629.84;;;7.41;78.36
60319;BME280;46163;52.306;5.634;2024-03-23T14:01:10;100643.38;;;7.31;75.52